sensor_id;sensor_type;location;lat;lon;timestamp;pressure;altitude;pressure_sealevel;temperature;humidity
70437;BME280;57877;39.750;-104.894;2024-03-17T00:00:08;83922.59;;;9.49;25.18
70437;BME280;57877;39.750;-104.894;2024-03-17T00:02:32;83922.85;;;10.27;25.18
70437;BME280;57877;39.750;-104.894;2024-03-17T00:04:57;83928.81;;;11.21;24.40
70437;BME280;57877;39.750;-104.894;2024-03-17T00:07:22;83927.86;;;10.80;23.52
70437;BME280;57877;39.750;-104.894;2024-03-17T00:09:48;83929.11;;;10.86;23.80
70437;BME280;57877;39.750;-104.894;2024-03-17T00:12:12;83931.99;;;10.52;24.24
70437;BME280;57877;39.750;-104.894;2024-03-17T00:14:38;83935.64;;;9.78;26.25
70437;BME280;57877;39.750;-104.894;2024-03-17T00:17:03;83937.49;;;9.55;25.69
70437;BME280;57877;39.750;-104.894;2024-03-17T00:19:28;83937.91;;;10.38;24.48
70437;BME280;57877;39.750;-104.894;2024-03-17T00:21:53;83936.64;;;10.31;24.44
70437;BME280;57877;39.750;-104.894;2024-03-17T00:24:18;83935.86;;;9.59;25.23
70437;BME280;57877;39.750;-104.894;2024-03-17T00:26:43;83938.21;;;10.01;26.15
70437;BME280;57877;39.750;-104.894;2024-03-17T00:29:08;83938.76;;;9.83;24.53
70437;BME280;57877;39.750;-104.894;2024-03-17T00:31:33;83944.55;;;9.10;25.54
70437;BME280;57877;39.750;-104.894;2024-03-17T00:33:58;83947.75;;;8.91;25.76
70437;BME280;57877;39.750;-104.894;2024-03-17T00:36:23;83951.09;;;8.86;25.77
70437;BME280;57877;39.750;-104.894;2024-03-17T00:38:48;83954.35;;;8.90;26.25
70437;BME280;57877;39.750;-104.894;2024-03-17T00:41:13;83957.23;;;8.99;25.95
70437;BME280;57877;39.750;-104.894;2024-03-17T00:43:38;83962.58;;;7.99;26.93
70437;BME280;57877;39.750;-104.894;2024-03-17T00:46:04;83964.92;;;6.43;29.04
70437;BME280;57877;39.750;-104.894;2024-03-17T00:48:29;83972.35;;;7.64;28.04
70437;BME280;57877;39.750;-104.894;2024-03-17T00:50:56;83968.82;;;7.28;28.69
70437;BME280;57877;39.750;-104.894;2024-03-17T00:53:20;83971.56;;;7.31;28.71
70437;BME280;57877;39.750;-104.894;2024-03-17T00:55:51;83974.34;;;7.68;28.51
70437;BME280;57877;39.750;-104.894;2024-03-17T00:58:11;83972.76;;;7.39;28.74
70437;BME280;57877;39.750;-104.894;2024-03-17T01:00:37;83974.28;;;7.45;28.25
70437;BME280;57877;39.750;-104.894;2024-03-17T01:03:03;83974.63;;;7.74;28.03
70437;BME280;57877;39.750;-104.894;2024-03-17T01:05:28;83979.67;;;7.91;27.83
70437;BME280;57877;39.750;-104.894;2024-03-17T01:07:53;83979.14;;;6.48;29.71
70437;BME280;57877;39.750;-104.894;2024-03-17T01:10:18;83979.42;;;6.44;29.21
70437;BME280;57877;39.750;-104.894;2024-03-17T01:12:43;83977.90;;;6.39;29.55
70437;BME280;57877;39.750;-104.894;2024-03-17T01:15:09;83979.41;;;6.03;30.75
70437;BME280;57877;39.750;-104.894;2024-03-17T01:17:33;83979.02;;;7.12;29.33
70437;BME280;57877;39.750;-104.894;2024-03-17T01:19:59;83980.72;;;7.31;28.86
70437;BME280;57877;39.750;-104.894;2024-03-17T01:22:25;83981.10;;;7.03;29.23
70437;BME280;57877;39.750;-104.894;2024-03-17T01:24:51;83984.95;;;7.16;28.85
70437;BME280;57877;39.750;-104.894;2024-03-17T01:27:16;83983.32;;;6.07;30.26
70437;BME280;57877;39.750;-104.894;2024-03-17T01:29:41;83985.80;;;7.29;29.14
70437;BME280;57877;39.750;-104.894;2024-03-17T01:32:06;83984.31;;;6.39;29.97
70437;BME280;57877;39.750;-104.894;2024-03-17T01:34:31;83986.05;;;6.08;30.27
70437;BME280;57877;39.750;-104.894;2024-03-17T01:36:56;83985.96;;;7.20;29.23
70437;BME280;57877;39.750;-104.894;2024-03-17T01:39:21;83986.25;;;7.05;29.79
70437;BME280;57877;39.750;-104.894;2024-03-17T01:41:46;83991.70;;;7.68;28.97
70437;BME280;57877;39.750;-104.894;2024-03-17T01:44:21;83993.77;;;7.69;29.06
70437;BME280;57877;39.750;-104.894;2024-03-17T01:46:36;83992.87;;;7.74;28.93
70437;BME280;57877;39.750;-104.894;2024-03-17T01:49:01;83993.44;;;7.13;28.96
70437;BME280;57877;39.750;-104.894;2024-03-17T01:51:27;83996.11;;;7.64;28.88
70437;BME280;57877;39.750;-104.894;2024-03-17T01:53:54;83998.31;;;7.34;29.06
70437;BME280;57877;39.750;-104.894;2024-03-17T01:56:19;84000.92;;;7.00;29.41
70437;BME280;57877;39.750;-104.894;2024-03-17T01:58:45;84004.01;;;7.18;30.06
70437;BME280;57877;39.750;-104.894;2024-03-17T02:01:11;84001.59;;;6.97;29.59
70437;BME280;57877;39.750;-104.894;2024-03-17T02:03:36;84003.75;;;6.73;29.57
70437;BME280;57877;39.750;-104.894;2024-03-17T02:06:01;84008.00;;;6.96;29.04
70437;BME280;57877;39.750;-104.894;2024-03-17T02:08:27;84012.66;;;7.37;28.32
70437;BME280;57877;39.750;-104.894;2024-03-17T02:10:54;84014.72;;;7.02;29.12
70437;BME280;57877;39.750;-104.894;2024-03-17T02:13:17;84016.85;;;7.74;28.32
70437;BME280;57877;39.750;-104.894;2024-03-17T02:15:43;84019.66;;;7.90;27.80
70437;BME280;57877;39.750;-104.894;2024-03-17T02:18:08;84018.04;;;7.37;28.76
70437;BME280;57877;39.750;-104.894;2024-03-17T02:20:34;84017.44;;;7.53;28.39
70437;BME280;57877;39.750;-104.894;2024-03-17T02:22:59;84019.22;;;8.14;27.91
70437;BME280;57877;39.750;-104.894;2024-03-17T02:25:24;84021.35;;;7.83;28.56
70437;BME280;57877;39.750;-104.894;2024-03-17T02:27:49;84026.14;;;8.12;27.95
70437;BME280;57877;39.750;-104.894;2024-03-17T02:30:14;84026.43;;;7.69;28.28
70437;BME280;57877;39.750;-104.894;2024-03-17T02:32:39;84030.21;;;7.97;27.60
70437;BME280;57877;39.750;-104.894;2024-03-17T02:35:05;84030.10;;;8.02;27.76
70437;BME280;57877;39.750;-104.894;2024-03-17T02:37:30;84028.01;;;7.72;27.88
70437;BME280;57877;39.750;-104.894;2024-03-17T02:39:55;84030.61;;;7.37;28.12
70437;BME280;57877;39.750;-104.894;2024-03-17T02:42:20;84033.36;;;7.74;28.43
70437;BME280;57877;39.750;-104.894;2024-03-17T02:44:45;84036.44;;;7.11;28.84
70437;BME280;57877;39.750;-104.894;2024-03-17T02:47:10;84036.08;;;6.83;29.55
70437;BME280;57877;39.750;-104.894;2024-03-17T02:49:35;84039.82;;;7.81;28.44
70437;BME280;57877;39.750;-104.894;2024-03-17T02:52:01;84043.01;;;7.54;28.48
70437;BME280;57877;39.750;-104.894;2024-03-17T02:54:26;84041.93;;;7.85;28.32
70437;BME280;57877;39.750;-104.894;2024-03-17T02:56:51;84045.62;;;7.89;28.15
70437;BME280;57877;39.750;-104.894;2024-03-17T02:59:16;84046.20;;;7.90;28.53
70437;BME280;57877;39.750;-104.894;2024-03-17T03:01:41;84048.74;;;7.88;28.43
70437;BME280;57877;39.750;-104.894;2024-03-17T03:04:06;84053.83;;;7.54;28.75
70437;BME280;57877;39.750;-104.894;2024-03-17T03:06:33;84053.60;;;7.81;28.52
70437;BME280;57877;39.750;-104.894;2024-03-17T03:08:56;84056.27;;;7.96;28.78
70437;BME280;57877;39.750;-104.894;2024-03-17T03:11:21;84058.85;;;8.06;28.43
70437;BME280;57877;39.750;-104.894;2024-03-17T03:13:46;84063.11;;;7.80;29.07
70437;BME280;57877;39.750;-104.894;2024-03-17T03:16:13;84060.39;;;7.91;28.45
70437;BME280;57877;39.750;-104.894;2024-03-17T03:18:37;84062.90;;;7.71;28.24
70437;BME280;57877;39.750;-104.894;2024-03-17T03:21:02;84064.00;;;8.02;28.17
70437;BME280;57877;39.750;-104.894;2024-03-17T03:23:26;84069.17;;;7.85;28.91
70437;BME280;57877;39.750;-104.894;2024-03-17T03:25:56;84066.58;;;8.02;28.88
70437;BME280;57877;39.750;-104.894;2024-03-17T03:28:17;84068.05;;;8.13;28.64
70437;BME280;57877;39.750;-104.894;2024-03-17T03:30:42;84066.70;;;7.84;28.69
70437;BME280;57877;39.750;-104.894;2024-03-17T03:33:07;84068.55;;;8.06;28.87
70437;BME280;57877;39.750;-104.894;2024-03-17T03:35:32;84069.84;;;7.71;29.43
70437;BME280;57877;39.750;-104.894;2024-03-17T03:37:57;84067.69;;;7.97;28.97
70437;BME280;57877;39.750;-104.894;2024-03-17T03:40:22;84072.97;;;7.76;29.48
70437;BME280;57877;39.750;-104.894;2024-03-17T03:42:47;84072.62;;;7.25;30.03
70437;BME280;57877;39.750;-104.894;2024-03-17T03:45:12;84073.64;;;7.62;29.30
70437;BME280;57877;39.750;-104.894;2024-03-17T03:47:37;84074.98;;;7.96;29.23
70437;BME280;57877;39.750;-104.894;2024-03-17T03:50:02;84078.66;;;7.84;29.35
70437;BME280;57877;39.750;-104.894;2024-03-17T03:52:27;84081.20;;;7.23;29.97
70437;BME280;57877;39.750;-104.894;2024-03-17T03:54:52;84083.86;;;7.48;29.71
70437;BME280;57877;39.750;-104.894;2024-03-17T03:57:17;84084.62;;;7.59;29.76
70437;BME280;57877;39.750;-104.894;2024-03-17T03:59:42;84085.65;;;7.61;29.74
70437;BME280;57877;39.750;-104.894;2024-03-17T04:02:07;84087.39;;;7.91;29.38
70437;BME280;57877;39.750;-104.894;2024-03-17T04:04:32;84085.97;;;7.94;29.85
70437;BME280;57877;39.750;-104.894;2024-03-17T04:06:57;84085.66;;;8.10;29.18
70437;BME280;57877;39.750;-104.894;2024-03-17T04:09:23;84087.18;;;7.82;29.45
70437;BME280;57877;39.750;-104.894;2024-03-17T04:11:48;84086.89;;;7.93;29.60
70437;BME280;57877;39.750;-104.894;2024-03-17T04:14:13;84085.73;;;7.88;29.46
70437;BME280;57877;39.750;-104.894;2024-03-17T04:16:38;84089.13;;;7.98;29.43
70437;BME280;57877;39.750;-104.894;2024-03-17T04:19:03;84089.30;;;7.85;29.57
70437;BME280;57877;39.750;-104.894;2024-03-17T04:21:28;84092.42;;;7.76;29.68
70437;BME280;57877;39.750;-104.894;2024-03-17T04:23:53;84094.72;;;7.63;29.47
70437;BME280;57877;39.750;-104.894;2024-03-17T04:26:18;84099.27;;;8.15;29.53
70437;BME280;57877;39.750;-104.894;2024-03-17T04:28:44;84099.22;;;8.05;29.25
70437;BME280;57877;39.750;-104.894;2024-03-17T04:31:09;84101.68;;;7.90;29.57
70437;BME280;57877;39.750;-104.894;2024-03-17T04:33:34;84102.70;;;8.06;29.27
70437;BME280;57877;39.750;-104.894;2024-03-17T04:35:59;84105.49;;;8.08;29.39
70437;BME280;57877;39.750;-104.894;2024-03-17T04:38:24;84107.63;;;7.94;29.04
70437;BME280;57877;39.750;-104.894;2024-03-17T04:40:49;84108.80;;;8.11;29.27
70437;BME280;57877;39.750;-104.894;2024-03-17T04:43:14;84110.07;;;7.77;29.10
70437;BME280;57877;39.750;-104.894;2024-03-17T04:45:39;84108.53;;;7.98;29.30
70437;BME280;57877;39.750;-104.894;2024-03-17T04:48:05;84109.37;;;7.69;29.35
70437;BME280;57877;39.750;-104.894;2024-03-17T04:50:29;84109.78;;;7.99;29.61
70437;BME280;57877;39.750;-104.894;2024-03-17T04:52:55;84112.17;;;7.97;29.13
70437;BME280;57877;39.750;-104.894;2024-03-17T04:55:20;84113.79;;;8.20;28.99
70437;BME280;57877;39.750;-104.894;2024-03-17T04:57:45;84112.60;;;8.01;28.72
70437;BME280;57877;39.750;-104.894;2024-03-17T05:00:11;84111.95;;;7.93;29.00
70437;BME280;57877;39.750;-104.894;2024-03-17T05:02:35;84109.73;;;8.25;29.61
70437;BME280;57877;39.750;-104.894;2024-03-17T05:05:00;84106.80;;;8.05;29.01
70437;BME280;57877;39.750;-104.894;2024-03-17T05:07:25;84105.33;;;8.04;29.08
70437;BME280;57877;39.750;-104.894;2024-03-17T05:09:50;84106.21;;;8.32;29.33
70437;BME280;57877;39.750;-104.894;2024-03-17T05:12:15;84103.33;;;8.11;29.19
70437;BME280;57877;39.750;-104.894;2024-03-17T05:14:40;84103.97;;;8.06;28.86
70437;BME280;57877;39.750;-104.894;2024-03-17T05:17:05;84103.13;;;8.31;28.78
70437;BME280;57877;39.750;-104.894;2024-03-17T05:19:31;84105.96;;;8.28;29.12
70437;BME280;57877;39.750;-104.894;2024-03-17T05:21:55;84103.43;;;8.11;29.01
70437;BME280;57877;39.750;-104.894;2024-03-17T05:24:20;84103.01;;;8.33;29.04
70437;BME280;57877;39.750;-104.894;2024-03-17T05:26:46;84103.37;;;7.99;28.97
70437;BME280;57877;39.750;-104.894;2024-03-17T05:29:10;84102.10;;;7.98;29.13
70437;BME280;57877;39.750;-104.894;2024-03-17T05:31:35;84102.61;;;8.20;29.48
70437;BME280;57877;39.750;-104.894;2024-03-17T05:34:01;84102.62;;;7.93;29.21
70437;BME280;57877;39.750;-104.894;2024-03-17T05:36:26;84099.97;;;7.90;29.25
70437;BME280;57877;39.750;-104.894;2024-03-17T05:38:51;84102.18;;;8.20;29.27
70437;BME280;57877;39.750;-104.894;2024-03-17T05:41:16;84100.00;;;8.28;29.26
70437;BME280;57877;39.750;-104.894;2024-03-17T05:43:41;84101.21;;;7.91;29.58
70437;BME280;57877;39.750;-104.894;2024-03-17T05:46:07;84097.65;;;8.23;29.57
70437;BME280;57877;39.750;-104.894;2024-03-17T05:48:31;84095.00;;;8.23;29.84
70437;BME280;57877;39.750;-104.894;2024-03-17T05:50:57;84094.51;;;8.25;29.40
70437;BME280;57877;39.750;-104.894;2024-03-17T05:53:24;84095.67;;;7.74;29.37
70437;BME280;57877;39.750;-104.894;2024-03-17T05:55:48;84092.14;;;8.01;29.70
70437;BME280;57877;39.750;-104.894;2024-03-17T05:58:14;84092.82;;;8.00;29.46
70437;BME280;57877;39.750;-104.894;2024-03-17T06:00:40;84091.63;;;7.87;29.23
70437;BME280;57877;39.750;-104.894;2024-03-17T06:03:06;84092.61;;;8.37;29.70
70437;BME280;57877;39.750;-104.894;2024-03-17T06:05:32;84090.58;;;7.92;29.75
70437;BME280;57877;39.750;-104.894;2024-03-17T06:07:56;84090.00;;;7.97;29.76
70437;BME280;57877;39.750;-104.894;2024-03-17T06:10:22;84091.30;;;7.99;29.74
70437;BME280;57877;39.750;-104.894;2024-03-17T06:12:48;84089.08;;;8.26;29.88
70437;BME280;57877;39.750;-104.894;2024-03-17T06:15:14;84087.83;;;8.19;29.59
70437;BME280;57877;39.750;-104.894;2024-03-17T06:17:40;84086.76;;;8.26;29.72
70437;BME280;57877;39.750;-104.894;2024-03-17T06:20:07;84086.71;;;8.16;30.16
70437;BME280;57877;39.750;-104.894;2024-03-17T06:22:32;84089.93;;;7.85;30.29
70437;BME280;57877;39.750;-104.894;2024-03-17T06:24:58;84092.12;;;8.15;30.19
70437;BME280;57877;39.750;-104.894;2024-03-17T06:27:24;84089.12;;;8.10;29.97
70437;BME280;57877;39.750;-104.894;2024-03-17T06:29:50;84089.72;;;8.11;30.02
70437;BME280;57877;39.750;-104.894;2024-03-17T06:32:15;84091.14;;;8.00;29.66
70437;BME280;57877;39.750;-104.894;2024-03-17T06:34:40;84090.83;;;7.96;30.00
70437;BME280;57877;39.750;-104.894;2024-03-17T06:37:06;84090.46;;;7.91;30.06
70437;BME280;57877;39.750;-104.894;2024-03-17T06:39:31;84091.57;;;7.87;30.65
70437;BME280;57877;39.750;-104.894;2024-03-17T06:41:58;84091.83;;;7.85;30.35
70437;BME280;57877;39.750;-104.894;2024-03-17T06:44:22;84092.44;;;7.68;30.72
70437;BME280;57877;39.750;-104.894;2024-03-17T06:46:47;84093.14;;;7.88;30.67
70437;BME280;57877;39.750;-104.894;2024-03-17T06:49:13;84093.75;;;7.80;30.65
70437;BME280;57877;39.750;-104.894;2024-03-17T06:51:39;84095.72;;;7.82;30.63
70437;BME280;57877;39.750;-104.894;2024-03-17T06:54:06;84093.91;;;7.80;30.38
70437;BME280;57877;39.750;-104.894;2024-03-17T06:56:32;84090.46;;;7.61;30.14
70437;BME280;57877;39.750;-104.894;2024-03-17T06:58:58;84089.68;;;7.68;30.15
70437;BME280;57877;39.750;-104.894;2024-03-17T07:01:23;84089.48;;;7.23;30.05
70437;BME280;57877;39.750;-104.894;2024-03-17T07:03:49;84088.62;;;7.62;30.29
70437;BME280;57877;39.750;-104.894;2024-03-17T07:06:15;84091.29;;;7.65;30.50
70437;BME280;57877;39.750;-104.894;2024-03-17T07:08:41;84088.66;;;7.47;30.17
70437;BME280;57877;39.750;-104.894;2024-03-17T07:11:07;84090.12;;;7.23;31.02
70437;BME280;57877;39.750;-104.894;2024-03-17T07:13:34;84089.45;;;7.44;30.82
70437;BME280;57877;39.750;-104.894;2024-03-17T07:15:58;84089.64;;;7.60;31.08
70437;BME280;57877;39.750;-104.894;2024-03-17T07:18:25;84085.62;;;7.34;31.35
70437;BME280;57877;39.750;-104.894;2024-03-17T07:20:48;84087.06;;;7.36;31.70
70437;BME280;57877;39.750;-104.894;2024-03-17T07:23:13;84089.84;;;7.40;31.73
70437;BME280;57877;39.750;-104.894;2024-03-17T07:25:38;84088.83;;;7.12;31.81
70437;BME280;57877;39.750;-104.894;2024-03-17T07:28:04;84088.77;;;7.34;32.06
70437;BME280;57877;39.750;-104.894;2024-03-17T07:30:30;84086.39;;;7.33;31.99
70437;BME280;57877;39.750;-104.894;2024-03-17T07:32:56;84085.57;;;7.14;31.92
70437;BME280;57877;39.750;-104.894;2024-03-17T07:35:22;84087.77;;;7.22;32.38
70437;BME280;57877;39.750;-104.894;2024-03-17T07:37:48;84090.00;;;7.18;32.28
70437;BME280;57877;39.750;-104.894;2024-03-17T07:40:14;84093.46;;;7.41;32.27
70437;BME280;57877;39.750;-104.894;2024-03-17T07:42:40;84096.36;;;7.11;32.53
70437;BME280;57877;39.750;-104.894;2024-03-17T07:45:06;84100.38;;;6.93;32.88
70437;BME280;57877;39.750;-104.894;2024-03-17T07:47:32;84102.94;;;7.28;32.88
70437;BME280;57877;39.750;-104.894;2024-03-17T07:49:58;84106.23;;;6.73;32.95
70437;BME280;57877;39.750;-104.894;2024-03-17T07:52:24;84107.38;;;6.68;32.74
70437;BME280;57877;39.750;-104.894;2024-03-17T07:54:50;84108.82;;;6.58;32.52
70437;BME280;57877;39.750;-104.894;2024-03-17T07:57:16;84111.72;;;7.11;32.92
70437;BME280;57877;39.750;-104.894;2024-03-17T07:59:41;84111.83;;;6.81;33.16
70437;BME280;57877;39.750;-104.894;2024-03-17T08:02:07;84115.89;;;6.76;33.36
70437;BME280;57877;39.750;-104.894;2024-03-17T08:04:33;84116.61;;;6.91;33.06
70437;BME280;57877;39.750;-104.894;2024-03-17T08:06:58;84116.68;;;6.74;32.96
70437;BME280;57877;39.750;-104.894;2024-03-17T08:09:23;84116.98;;;7.28;33.10
70437;BME280;57877;39.750;-104.894;2024-03-17T08:11:48;84117.93;;;6.86;32.94
70437;BME280;57877;39.750;-104.894;2024-03-17T08:14:13;84119.39;;;6.63;33.24
70437;BME280;57877;39.750;-104.894;2024-03-17T08:16:38;84122.46;;;6.64;33.20
70437;BME280;57877;39.750;-104.894;2024-03-17T08:19:04;84125.00;;;6.92;33.08
70437;BME280;57877;39.750;-104.894;2024-03-17T08:21:28;84128.43;;;6.96;33.21
70437;BME280;57877;39.750;-104.894;2024-03-17T08:23:53;84128.29;;;7.08;33.16
70437;BME280;57877;39.750;-104.894;2024-03-17T08:26:18;84129.90;;;6.52;33.36
70437;BME280;57877;39.750;-104.894;2024-03-17T08:28:44;84128.18;;;6.75;33.31
70437;BME280;57877;39.750;-104.894;2024-03-17T08:31:09;84130.73;;;6.75;33.39
70437;BME280;57877;39.750;-104.894;2024-03-17T08:33:33;84131.45;;;7.02;33.50
70437;BME280;57877;39.750;-104.894;2024-03-17T08:36:00;84132.37;;;6.97;33.95
70437;BME280;57877;39.750;-104.894;2024-03-17T08:38:24;84133.32;;;7.12;33.67
70437;BME280;57877;39.750;-104.894;2024-03-17T08:40:49;84136.76;;;6.63;33.87
70437;BME280;57877;39.750;-104.894;2024-03-17T08:43:15;84137.92;;;7.00;33.74
70437;BME280;57877;39.750;-104.894;2024-03-17T08:45:40;84139.32;;;6.90;33.40
70437;BME280;57877;39.750;-104.894;2024-03-17T08:48:05;84139.10;;;6.88;33.18
70437;BME280;57877;39.750;-104.894;2024-03-17T08:50:30;84142.85;;;6.83;33.24
70437;BME280;57877;39.750;-104.894;2024-03-17T08:52:55;84145.07;;;6.54;34.11
70437;BME280;57877;39.750;-104.894;2024-03-17T08:55:20;84142.49;;;6.50;33.84
70437;BME280;57877;39.750;-104.894;2024-03-17T08:57:45;84140.39;;;6.74;33.48
70437;BME280;57877;39.750;-104.894;2024-03-17T09:00:11;84143.22;;;7.01;34.24
70437;BME280;57877;39.750;-104.894;2024-03-17T09:02:35;84144.03;;;6.23;35.01
70437;BME280;57877;39.750;-104.894;2024-03-17T09:05:00;84142.55;;;6.50;35.28
70437;BME280;57877;39.750;-104.894;2024-03-17T09:07:25;84142.84;;;6.51;35.07
70437;BME280;57877;39.750;-104.894;2024-03-17T09:09:50;84137.93;;;6.94;34.73
70437;BME280;57877;39.750;-104.894;2024-03-17T09:12:15;84135.30;;;6.42;34.83
70437;BME280;57877;39.750;-104.894;2024-03-17T09:14:41;84134.55;;;6.03;34.80
70437;BME280;57877;39.750;-104.894;2024-03-17T09:17:06;84131.15;;;6.10;32.85
70437;BME280;57877;39.750;-104.894;2024-03-17T09:19:31;84133.51;;;5.43;33.57
70437;BME280;57877;39.750;-104.894;2024-03-17T09:21:56;84133.89;;;5.29;34.58
70437;BME280;57877;39.750;-104.894;2024-03-17T09:24:21;84131.53;;;5.21;34.41
70437;BME280;57877;39.750;-104.894;2024-03-17T09:26:46;84133.79;;;4.98;35.33
70437;BME280;57877;39.750;-104.894;2024-03-17T09:29:11;84133.32;;;5.06;35.02
70437;BME280;57877;39.750;-104.894;2024-03-17T09:31:36;84130.95;;;4.74;35.42
70437;BME280;57877;39.750;-104.894;2024-03-17T09:34:01;84126.77;;;4.89;35.29
70437;BME280;57877;39.750;-104.894;2024-03-17T09:36:26;84126.62;;;5.04;35.00
70437;BME280;57877;39.750;-104.894;2024-03-17T09:38:51;84123.01;;;5.17;35.11
70437;BME280;57877;39.750;-104.894;2024-03-17T09:41:20;84123.92;;;5.19;35.36
70437;BME280;57877;39.750;-104.894;2024-03-17T09:43:41;84125.69;;;4.64;35.75
70437;BME280;57877;39.750;-104.894;2024-03-17T09:46:06;84124.45;;;4.95;35.41
70437;BME280;57877;39.750;-104.894;2024-03-17T09:48:32;84123.19;;;4.72;36.31
70437;BME280;57877;39.750;-104.894;2024-03-17T09:50:58;84126.91;;;4.64;35.75
70437;BME280;57877;39.750;-104.894;2024-03-17T09:53:24;84129.54;;;4.46;36.07
70437;BME280;57877;39.750;-104.894;2024-03-17T09:55:46;84129.63;;;4.80;35.18
70437;BME280;57877;39.750;-104.894;2024-03-17T09:58:16;84126.62;;;4.13;35.61
70437;BME280;57877;39.750;-104.894;2024-03-17T10:00:37;84124.26;;;4.97;33.97
70437;BME280;57877;39.750;-104.894;2024-03-17T10:03:02;84121.49;;;4.43;33.66
70437;BME280;57877;39.750;-104.894;2024-03-17T10:05:27;84120.14;;;4.67;34.08
70437;BME280;57877;39.750;-104.894;2024-03-17T10:07:52;84119.48;;;5.32;32.56
70437;BME280;57877;39.750;-104.894;2024-03-17T10:10:17;84116.99;;;5.31;32.68
70437;BME280;57877;39.750;-104.894;2024-03-17T10:12:42;84117.78;;;5.44;32.59
70437;BME280;57877;39.750;-104.894;2024-03-17T10:15:11;84117.13;;;5.64;32.32
70437;BME280;57877;39.750;-104.894;2024-03-17T10:17:33;84111.80;;;5.72;32.63
70437;BME280;57877;39.750;-104.894;2024-03-17T10:22:23;84113.30;;;5.54;32.55
70437;BME280;57877;39.750;-104.894;2024-03-17T10:27:13;84111.24;;;5.89;32.48
70437;BME280;57877;39.750;-104.894;2024-03-17T10:29:38;84109.32;;;6.10;32.82
70437;BME280;57877;39.750;-104.894;2024-03-17T10:32:06;84108.34;;;5.89;32.32
70437;BME280;57877;39.750;-104.894;2024-03-17T10:34:30;84109.24;;;5.61;32.24
70437;BME280;57877;39.750;-104.894;2024-03-17T10:37:05;84106.09;;;6.26;32.54
70437;BME280;57877;39.750;-104.894;2024-03-17T10:39:24;84104.16;;;5.98;32.30
70437;BME280;57877;39.750;-104.894;2024-03-17T10:41:44;84102.83;;;5.54;32.04
70437;BME280;57877;39.750;-104.894;2024-03-17T10:44:09;84102.76;;;6.11;32.02
70437;BME280;57877;39.750;-104.894;2024-03-17T10:46:34;84101.80;;;5.91;31.43
70437;BME280;57877;39.750;-104.894;2024-03-17T10:48:59;84102.52;;;6.07;30.84
70437;BME280;57877;39.750;-104.894;2024-03-17T10:51:24;84102.59;;;6.11;30.50
70437;BME280;57877;39.750;-104.894;2024-03-17T10:53:49;84104.22;;;6.01;30.49
70437;BME280;57877;39.750;-104.894;2024-03-17T10:56:16;84104.79;;;6.43;30.67
70437;BME280;57877;39.750;-104.894;2024-03-17T10:58:44;84104.36;;;5.81;29.08
70437;BME280;57877;39.750;-104.894;2024-03-17T11:01:04;84102.86;;;6.24;29.60
70437;BME280;57877;39.750;-104.894;2024-03-17T11:03:31;84102.74;;;6.35;29.44
70437;BME280;57877;39.750;-104.894;2024-03-17T11:05:54;84103.26;;;6.28;29.18
70437;BME280;57877;39.750;-104.894;2024-03-17T11:08:19;84103.68;;;6.21;28.95
70437;BME280;57877;39.750;-104.894;2024-03-17T11:10:50;84102.78;;;6.10;29.38
70437;BME280;57877;39.750;-104.894;2024-03-17T11:15:37;84101.50;;;6.15;30.21
70437;BME280;57877;39.750;-104.894;2024-03-17T11:20:27;84100.81;;;6.21;30.30
70437;BME280;57877;39.750;-104.894;2024-03-17T11:22:52;84097.97;;;6.18;30.34
70437;BME280;57877;39.750;-104.894;2024-03-17T11:27:41;84091.12;;;6.11;30.15
70437;BME280;57877;39.750;-104.894;2024-03-17T11:32:34;84091.88;;;5.93;30.64
70437;BME280;57877;39.750;-104.894;2024-03-17T11:39:52;84089.26;;;5.79;31.09
70437;BME280;57877;39.750;-104.894;2024-03-17T11:42:13;84089.29;;;5.91;31.33
70437;BME280;57877;39.750;-104.894;2024-03-17T11:44:36;84091.50;;;5.68;31.46
70437;BME280;57877;39.750;-104.894;2024-03-17T11:47:03;84093.18;;;5.55;32.57
70437;BME280;57877;39.750;-104.894;2024-03-17T11:49:32;84095.59;;;5.35;32.39
70437;BME280;57877;39.750;-104.894;2024-03-17T11:51:53;84096.57;;;5.22;32.65
70437;BME280;57877;39.750;-104.894;2024-03-17T11:54:18;84099.40;;;5.14;32.71
70437;BME280;57877;39.750;-104.894;2024-03-17T11:56:42;84098.31;;;5.40;32.80
70437;BME280;57877;39.750;-104.894;2024-03-17T11:59:07;84096.22;;;4.96;33.00
70437;BME280;57877;39.750;-104.894;2024-03-17T12:01:32;84093.94;;;5.06;33.03
70437;BME280;57877;39.750;-104.894;2024-03-17T12:03:57;84098.21;;;4.76;33.70
70437;BME280;57877;39.750;-104.894;2024-03-17T12:06:22;84101.57;;;4.87;33.95
70437;BME280;57877;39.750;-104.894;2024-03-17T12:08:47;84098.60;;;4.80;34.03
70437;BME280;57877;39.750;-104.894;2024-03-17T12:11:17;84097.56;;;4.65;34.51
70437;BME280;57877;39.750;-104.894;2024-03-17T12:13:37;84096.24;;;4.68;34.23
70437;BME280;57877;39.750;-104.894;2024-03-17T12:16:10;84096.19;;;4.71;33.70
70437;BME280;57877;39.750;-104.894;2024-03-17T12:18:27;84098.68;;;4.78;33.62
70437;BME280;57877;39.750;-104.894;2024-03-17T12:20:52;84103.00;;;4.89;34.21
70437;BME280;57877;39.750;-104.894;2024-03-17T12:23:18;84107.87;;;4.95;34.59
70437;BME280;57877;39.750;-104.894;2024-03-17T12:25:47;84110.33;;;4.75;34.25
70437;BME280;57877;39.750;-104.894;2024-03-17T12:28:16;84111.17;;;4.53;34.09
70437;BME280;57877;39.750;-104.894;2024-03-17T12:30:33;84112.91;;;4.71;34.11
70437;BME280;57877;39.750;-104.894;2024-03-17T12:32:58;84110.12;;;4.87;33.21
70437;BME280;57877;39.750;-104.894;2024-03-17T12:35:23;84107.97;;;5.11;33.30
70437;BME280;57877;39.750;-104.894;2024-03-17T12:37:48;84107.88;;;4.73;32.91
70437;BME280;57877;39.750;-104.894;2024-03-17T12:40:21;84110.66;;;4.93;33.29
70437;BME280;57877;39.750;-104.894;2024-03-17T12:42:38;84110.92;;;4.64;33.33
70437;BME280;57877;39.750;-104.894;2024-03-17T12:45:03;84113.31;;;5.20;33.63
70437;BME280;57877;39.750;-104.894;2024-03-17T12:47:29;84113.04;;;4.62;33.34